Time;durP1;ratioP1;P1;durP2;ratioP2;P2;SDS_P1;SDS_P2;PMS_P1;PMS_P2;Temp;Humidity;BMP_temperature;BMP_pressure;BME280_temperature;BME280_humidity;BME280_pressure;Samples;Min_cycle;Max_cycle;Signal;HPM_P1;HPM_P2
2022/08/25 00:00:00;;;;;;;4.67;3.20;;;;;;;;;;341401;29;934;-82
2022/08/25 00:00:11;;;;;;;5.75;3.10;;;;;;;;;;340209;29;966;-91
2022/08/25 00:00:22;;;;;;;5.50;3.08;;;;;;;;;;339912;29;844;-81
2022/08/25 00:00:32;;;;;;;5.65;3.22;;;;;;;;;;340130;29;812;-81
2022/08/25 00:00:43;;;;;;;5.57;3.20;;;;;;;;;;340043;29;1006;-87
2022/08/25 00:00:53;;;;;;;5.65;3.00;;;;;;;;;;337348;29;1500;-87
2022/08/25 00:01:12;;;;;;;5.00;3.00;;;;;;;;;;338798;29;962;-81
2022/08/25 00:01:25;;;;;;;4.32;2.95;;;;;;;;;;337172;29;940;-81
2022/08/25 00:01:37;;;;;;;5.82;2.92;;;;;;;;;;340031;29;872;-81
2022/08/25 00:01:54;;;;;;;6.82;3.05;;;;;;;;;;342532;28;965;-81
2022/08/25 00:02:06;;;;;;;5.43;3.20;;;;;;;;;;342562;28;1380;-81
2022/08/25 00:02:16;;;;;;;4.32;3.28;;;;;;;;;;339866;29;1482;-81
2022/08/25 00:02:28;;;;;;;4.00;3.10;;;;;;;;;;337399;29;1397;-91
2022/08/25 00:02:40;;;;;;;4.93;2.95;;;;;;;;;;341526;29;943;-91
2022/08/25 00:02:50;;;;;;;5.32;3.05;;;;;;;;;;341478;29;876;-81
2022/08/25 00:03:01;;;;;;;5.73;3.10;;;;;;;;;;342240;28;1439;-82
2022/08/25 00:03:12;;;;;;;6.30;3.17;;;;;;;;;;338823;29;1333;-91
2022/08/25 00:03:22;;;;;;;5.80;3.15;;;;;;;;;;338476;29;1276;-81
2022/08/25 00:03:33;;;;;;;4.05;2.83;;;;;;;;;;341310;29;1179;-81
2022/08/25 00:03:44;;;;;;;4.47;2.73;;;;;;;;;;340126;29;887;-82
2022/08/25 00:03:54;;;;;;;5.22;2.72;;;;;;;;;;337522;29;639;-82
2022/08/25 00:04:09;;;;;;;5.25;2.72;;;;;;;;;;340054;29;800;-82
2022/08/25 00:04:19;;;;;;;4.22;2.95;;;;;;;;;;339965;29;798;-81
2022/08/25 00:04:30;;;;;;;4.75;3.15;;;;;;;;;;338810;29;832;-92
2022/08/25 00:04:40;;;;;;;6.20;3.20;;;;;;;;;;338843;29;856;-81
2022/08/25 00:04:51;;;;;;;6.40;3.05;;;;;;;;;;338776;29;888;-81
2022/08/25 00:05:01;;;;;;;5.77;2.90;;;;;;;;;;338788;29;801;-91
2022/08/25 00:05:12;;;;;;;5.37;2.93;;;;;;;;;;341212;29;1981;-91
2022/08/25 00:05:26;;;;;;;5.17;3.00;;;;;;;;;;339878;29;1397;-82
2022/08/25 00:05:37;;;;;;;3.95;2.88;;;;;;;;;;338652;29;1241;-85
2022/08/25 00:05:47;;;;;;;3.90;2.90;;;;;;;;;;339381;28;1348;-86
2022/08/25 00:05:58;;;;;;;4.13;2.58;;;;;;;;;;340396;29;1070;-82
2022/08/25 00:06:08;;;;;;;4.23;2.73;;;;;;;;;;341191;29;1271;-86
2022/08/25 00:06:19;;;;;;;4.65;2.75;;;;;;;;;;338296;29;1125;-83
2022/08/25 00:06:30;;;;;;;4.20;2.80;;;;;;;;;;341241;29;1403;-82
2022/08/25 00:06:42;;;;;;;4.23;2.93;;;;;;;;;;342700;28;1297;-81
2022/08/25 00:06:54;;;;;;;4.13;3.10;;;;;;;;;;341340;29;1736;-82
2022/08/25 00:07:05;;;;;;;3.92;2.90;;;;;;;;;;337384;29;930;-82
2022/08/25 00:07:15;;;;;;;4.10;2.87;;;;;;;;;;338719;29;940;-82
2022/08/25 00:07:26;;;;;;;4.30;2.95;;;;;;;;;;344067;28;1184;-82
2022/08/25 00:07:37;;;;;;;4.30;3.10;;;;;;;;;;344023;28;1271;-81
2022/08/25 00:07:47;;;;;;;3.85;3.05;;;;;;;;;;342727;28;1351;-82
2022/08/25 00:07:58;;;;;;;4.18;3.05;;;;;;;;;;342520;28;1162;-82
2022/08/25 00:08:09;;;;;;;4.75;3.13;;;;;;;;;;338842;29;844;-82
2022/08/25 00:08:19;;;;;;;5.07;3.00;;;;;;;;;;339905;29;1181;-82
2022/08/25 00:08:30;;;;;;;6.50;3.08;;;;;;;;;;341423;29;883;-82
2022/08/25 00:08:40;;;;;;;7.27;3.50;;;;;;;;;;342263;28;1257;-84
2022/08/25 00:08:51;;;;;;;6.80;3.35;;;;;;;;;;341444;29;899;-83
2022/08/25 00:09:02;;;;;;;5.83;3.10;;;;;;;;;;342704;28;625;-82
2022/08/25 00:09:15;;;;;;;5.18;2.85;;;;;;;;;;341537;29;832;-82
2022/08/25 00:09:26;;;;;;;5.57;2.90;;;;;;;;;;338633;29;928;-81
2022/08/25 00:09:36;;;;;;;5.68;2.97;;;;;;;;;;338765;29;1349;-82
2022/08/25 00:09:47;;;;;;;5.28;3.08;;;;;;;;;;341274;29;1202;-82
2022/08/25 00:09:57;;;;;;;5.20;3.23;;;;;;;;;;342556;28;850;-82
2022/08/25 00:10:08;;;;;;;4.65;3.22;;;;;;;;;;343996;28;1223;-82
2022/08/25 00:10:19;;;;;;;4.75;3.25;;;;;;;;;;342672;28;583;-81
2022/08/25 00:10:29;;;;;;;4.60;3.07;;;;;;;;;;341366;29;918;-82
2022/08/25 00:10:41;;;;;;;4.25;2.78;;;;;;;;;;338683;29;1372;-81
2022/08/25 00:10:51;;;;;;;3.78;2.50;;;;;;;;;;337435;29;1561;-82
2022/08/25 00:11:06;;;;;;;3.83;2.70;;;;;;;;;;338751;29;824;-81
2022/08/25 00:11:18;;;;;;;3.72;2.80;;;;;;;;;;342735;28;859;-82
2022/08/25 00:11:30;;;;;;;3.42;2.75;;;;;;;;;;340103;29;948;-81
2022/08/25 00:11:41;;;;;;;3.38;2.80;;;;;;;;;;338875;29;971;-82
2022/08/25 00:11:51;;;;;;;4.60;2.97;;;;;;;;;;337688;29;1179;-82
2022/08/25 00:12:03;;;;;;;4.85;3.00;;;;;;;;;;340129;29;1325;-92
2022/08/25 00:12:13;;;;;;;5.28;2.70;;;;;;;;;;340187;29;927;-82
2022/08/25 00:12:24;;;;;;;4.38;2.55;;;;;;;;;;341169;29;1193;-82
2022/08/25 00:12:35;;;;;;;4.28;2.50;;;;;;;;;;340005;29;1198;-81
2022/08/25 00:12:45;;;;;;;3.90;2.60;;;;;;;;;;342767;28;872;-82
2022/08/25 00:12:56;;;;;;;3.90;2.63;;;;;;;;;;341333;29;1217;-82
2022/08/25 00:13:07;;;;;;;3.80;2.80;;;;;;;;;;340001;29;808;-82
2022/08/25 00:13:18;;;;;;;3.60;2.80;;;;;;;;;;338678;29;856;-81
2022/08/25 00:13:28;;;;;;;4.23;2.97;;;;;;;;;;338696;29;1158;-91
2022/08/25 00:13:43;;;;;;;5.07;3.03;;;;;;;;;;341447;29;821;-81
2022/08/25 00:13:57;;;;;;;5.95;3.08;;;;;;;;;;342374;28;1438;-82
2022/08/25 00:14:12;;;;;;;5.20;3.15;;;;;;;;;;340120;29;964;-81
2022/08/25 00:14:25;;;;;;;4.20;3.00;;;;;;;;;;339823;29;1403;-81
2022/08/25 00:14:36;;;;;;;4.10;2.85;;;;;;;;;;342737;28;868;-82
2022/08/25 00:14:47;;;;;;;3.67;2.75;;;;;;;;;;342578;28;1169;-82
2022/08/25 00:14:57;;;;;;;3.87;2.50;;;;;;;;;;341282;28;1234;-81
2022/08/25 00:15:08;;;;;;;4.85;2.60;;;;;;;;;;342737;28;1319;-91
2022/08/25 00:15:22;;;;;;;5.40;2.70;;;;;;;;;;341354;29;1478;-81
2022/08/25 00:15:33;;;;;;;6.28;3.40;;;;;;;;;;341416;29;1093;-81
2022/08/25 00:15:45;;;;;;;6.03;3.40;;;;;;;;;;337413;29;956;-82
2022/08/25 00:15:56;;;;;;;5.30;2.80;;;;;;;;;;336077;29;857;-82
2022/08/25 00:16:07;;;;;;;4.43;2.57;;;;;;;;;;339802;29;812;-82
2022/08/25 00:16:18;;;;;;;3.45;2.65;;;;;;;;;;341480;29;891;-83
2022/08/25 00:16:30;;;;;;;3.70;2.73;;;;;;;;;;339728;29;1256;-82
2022/08/25 00:16:40;;;;;;;3.90;2.72;;;;;;;;;;341384;29;1325;-83
2022/08/25 00:16:51;;;;;;;4.88;2.70;;;;;;;;;;339990;29;1387;-82
2022/08/25 00:17:01;;;;;;;5.27;2.87;;;;;;;;;;338630;29;1158;-81
2022/08/25 00:17:12;;;;;;;5.22;3.08;;;;;;;;;;341314;29;1237;-91
2022/08/25 00:17:22;;;;;;;4.90;3.10;;;;;;;;;;339852;29;1410;-81
2022/08/25 00:17:33;;;;;;;4.53;3.10;;;;;;;;;;341273;29;1460;-82
2022/08/25 00:17:44;;;;;;;4.63;3.10;;;;;;;;;;341415;29;923;-81
2022/08/25 00:17:56;;;;;;;4.13;3.00;;;;;;;;;;340712;29;1272;-85
2022/08/25 00:18:06;;;;;;;5.60;2.90;;;;;;;;;;341326;29;1655;-81
2022/08/25 00:18:17;;;;;;;5.22;2.75;;;;;;;;;;341395;29;1304;-91
2022/08/25 00:18:27;;;;;;;5.07;2.90;;;;;;;;;;341104;29;903;-81
2022/08/25 00:18:38;;;;;;;3.78;2.95;;;;;;;;;;341509;29;797;-82
2022/08/25 00:18:51;;;;;;;4.10;3.05;;;;;;;;;;338736;29;1169;-81
2022/08/25 00:19:09;;;;;;;4.25;2.90;;;;;;;;;;341267;29;976;-81
2022/08/25 00:19:22;;;;;;;5.28;3.42;;;;;;;;;;340044;29;947;-81
2022/08/25 00:19:34;;;;;;;5.50;3.60;;;;;;;;;;341284;28;932;-81
2022/08/25 00:19:45;;;;;;;4.88;3.03;;;;;;;;;;338641;29;1285;-82
2022/08/25 00:19:55;;;;;;;4.80;3.00;;;;;;;;;;342525;28;1209;-81
2022/08/25 00:20:08;;;;;;;4.63;2.70;;;;;;;;;;342721;28;1501;-82
2022/08/25 00:20:18;;;;;;;5.45;2.95;;;;;;;;;;342727;28;1356;-81
2022/08/25 00:20:29;;;;;;;5.93;2.70;;;;;;;;;;339698;29;797;-82
2022/08/25 00:20:40;;;;;;;4.72;2.75;;;;;;;;;;341297;29;825;-82
2022/08/25 00:20:50;;;;;;;5.03;2.80;;;;;;;;;;339959;29;1630;-92
2022/08/25 00:21:00;;;;;;;5.25;2.90;;;;;;;;;;338726;29;1051;-83
2022/08/25 00:21:12;;;;;;;5.90;2.93;;;;;;;;;;338801;29;1158;-93
2022/08/25 00:21:22;;;;;;;5.38;3.00;;;;;;;;;;341228;29;1393;-81
2022/08/25 00:21:33;;;;;;;4.40;2.90;;;;;;;;;;340152;29;904;-92
2022/08/25 00:21:43;;;;;;;4.40;3.00;;;;;;;;;;342814;28;958;-81
2022/08/25 00:21:54;;;;;;;4.57;2.73;;;;;;;;;;341292;29;964;-82
2022/08/25 00:22:05;;;;;;;4.60;2.88;;;;;;;;;;340059;29;1466;-81
2022/08/25 00:22:16;;;;;;;5.63;2.55;;;;;;;;;;341524;29;848;-81
2022/08/25 00:22:26;;;;;;;5.97;2.80;;;;;;;;;;342411;28;1452;-81
2022/08/25 00:22:37;;;;;;;5.85;2.72;;;;;;;;;;342774;28;1513;-81
2022/08/25 00:22:48;;;;;;;5.17;2.93;;;;;;;;;;339976;29;1157;-83
2022/08/25 00:22:58;;;;;;;4.85;2.88;;;;;;;;;;341343;29;908;-81
2022/08/25 00:23:09;;;;;;;4.50;2.87;;;;;;;;;;341529;29;840;-81
2022/08/25 00:23:19;;;;;;;5.67;3.37;;;;;;;;;;340075;29;1335;-81
2022/08/25 00:23:31;;;;;;;6.35;3.40;;;;;;;;;;336899;29;884;-87
2022/08/25 00:23:42;;;;;;;6.60;3.53;;;;;;;;;;341444;29;880;-82
2022/08/25 00:23:52;;;;;;;5.25;3.10;;;;;;;;;;341193;29;1162;-81
2022/08/25 00:24:03;;;;;;;4.53;3.00;;;;;;;;;;341249;29;1213;-81
2022/08/25 00:24:14;;;;;;;4.43;2.83;;;;;;;;;;338860;29;932;-92
2022/08/25 00:24:25;;;;;;;4.50;2.90;;;;;;;;;;338614;29;911;-81
2022/08/25 00:24:35;;;;;;;4.70;3.05;;;;;;;;;;340098;29;820;-81
2022/08/25 00:24:46;;;;;;;6.20;3.20;;;;;;;;;;338780;29;805;-82
2022/08/25 00:24:56;;;;;;;6.38;3.10;;;;;;;;;;338651;29;1316;-81
2022/08/25 00:25:08;;;;;;;6.30;3.07;;;;;;;;;;337426;29;1278;-81
2022/08/25 00:25:20;;;;;;;4.72;3.13;;;;;;;;;;339979;29;1992;-81
2022/08/25 00:25:30;;;;;;;4.53;3.10;;;;;;;;;;339693;29;1419;-82
2022/08/25 00:25:41;;;;;;;4.60;3.03;;;;;;;;;;338820;29;861;-81
2022/08/25 00:25:54;;;;;;;4.85;3.10;;;;;;;;;;337195;29;1199;-82
2022/08/25 00:26:05;;;;;;;4.95;3.22;;;;;;;;;;338542;29;1266;-81
2022/08/25 00:26:16;;;;;;;4.50;3.25;;;;;;;;;;337600;29;955;-92
2022/08/25 00:26:27;;;;;;;4.65;3.20;;;;;;;;;;338483;29;1240;-82
2022/08/25 00:26:39;;;;;;;5.15;3.20;;;;;;;;;;342817;28;911;-83
2022/08/25 00:26:51;;;;;;;5.97;3.28;;;;;;;;;;340179;29;876;-81
2022/08/25 00:27:01;;;;;;;5.57;3.20;;;;;;;;;;339953;29;1385;-81
2022/08/25 00:27:12;;;;;;;4.07;3.00;;;;;;;;;;337569;29;900;-91
2022/08/25 00:27:22;;;;;;;4.10;2.95;;;;;;;;;;337642;29;880;-92
2022/08/25 00:27:33;;;;;;;3.90;2.90;;;;;;;;;;338473;29;825;-81
2022/08/25 00:27:43;;;;;;;4.65;3.10;;;;;;;;;;340004;29;1178;-82
2022/08/25 00:27:54;;;;;;;4.40;3.07;;;;;;;;;;338632;29;1196;-81
2022/08/25 00:28:09;;;;;;;4.80;3.20;;;;;;;;;;337533;29;907;-81
2022/08/25 00:28:19;;;;;;;4.47;3.20;;;;;;;;;;339416;29;1338;-91
2022/08/25 00:28:30;;;;;;;5.43;3.13;;;;;;;;;;338567;29;856;-91
2022/08/25 00:28:42;;;;;;;5.80;3.20;;;;;;;;;;340030;29;1258;-82
2022/08/25 00:28:53;;;;;;;5.65;3.28;;;;;;;;;;338767;29;1323;-91
2022/08/25 00:29:04;;;;;;;4.75;3.67;;;;;;;;;;340098;29;797;-81
2022/08/25 00:29:14;;;;;;;4.70;3.50;;;;;;;;;;340163;29;908;-82
2022/08/25 00:29:25;;;;;;;5.18;3.65;;;;;;;;;;338545;29;1340;-81
2022/08/25 00:29:36;;;;;;;4.80;3.60;;;;;;;;;;341352;29;1289;-91
2022/08/25 00:29:47;;;;;;;4.68;3.55;;;;;;;;;;338826;29;838;-81
2022/08/25 00:29:59;;;;;;;5.03;3.73;;;;;;;;;;342642;28;836;-89
2022/08/25 00:30:10;;;;;;;5.25;3.67;;;;;;;;;;340311;28;1135;-81
2022/08/25 00:30:21;;;;;;;5.10;3.33;;;;;;;;;;341826;28;1234;-84
2022/08/25 00:30:32;;;;;;;4.73;3.03;;;;;;;;;;339859;29;844;-81
2022/08/25 00:30:43;;;;;;;4.95;3.33;;;;;;;;;;341348;28;990;-83
2022/08/25 00:30:53;;;;;;;4.88;3.42;;;;;;;;;;342246;28;1210;-82
2022/08/25 00:31:04;;;;;;;4.87;3.20;;;;;;;;;;339984;29;879;-81
2022/08/25 00:31:17;;;;;;;5.25;2.90;;;;;;;;;;337472;29;858;-81
2022/08/25 00:31:27;;;;;;;5.07;2.90;;;;;;;;;;341081;29;888;-84
2022/08/25 00:31:38;;;;;;;5.25;3.08;;;;;;;;;;338709;29;916;-91
2022/08/25 00:31:49;;;;;;;4.97;3.20;;;;;;;;;;337430;29;1258;-81
2022/08/25 00:31:59;;;;;;;4.93;3.40;;;;;;;;;;338739;29;860;-82
2022/08/25 00:32:10;;;;;;;5.47;3.40;;;;;;;;;;342701;28;1336;-90
2022/08/25 00:32:20;;;;;;;6.28;3.50;;;;;;;;;;341364;29;816;-81
2022/08/25 00:32:31;;;;;;;6.20;3.23;;;;;;;;;;341049;29;1385;-89
2022/08/25 00:32:41;;;;;;;5.97;3.00;;;;;;;;;;338714;29;1177;-82
2022/08/25 00:32:52;;;;;;;5.97;3.00;;;;;;;;;;342663;28;1602;-81
2022/08/25 00:33:03;;;;;;;5.63;3.10;;;;;;;;;;339987;29;1571;-90
2022/08/25 00:33:14;;;;;;;4.57;3.28;;;;;;;;;;340142;29;880;-82
2022/08/25 00:33:25;;;;;;;4.43;3.20;;;;;;;;;;341412;29;1293;-81
2022/08/25 00:33:35;;;;;;;5.13;3.50;;;;;;;;;;342454;28;781;-82
2022/08/25 00:33:46;;;;;;;5.20;3.47;;;;;;;;;;340033;29;1396;-82
2022/08/25 00:33:57;;;;;;;5.63;3.67;;;;;;;;;;337399;29;1325;-81
2022/08/25 00:34:11;;;;;;;4.78;3.35;;;;;;;;;;338747;29;932;-82
2022/08/25 00:34:24;;;;;;;5.25;3.53;;;;;;;;;;339255;29;1142;-81
2022/08/25 00:34:36;;;;;;;5.80;3.47;;;;;;;;;;339835;29;959;-81
2022/08/25 00:34:46;;;;;;;5.30;3.33;;;;;;;;;;340155;29;840;-82
2022/08/25 00:34:57;;;;;;;4.53;3.30;;;;;;;;;;340137;29;1210;-91
2022/08/25 00:35:07;;;;;;;4.35;3.25;;;;;;;;;;341451;29;829;-81
2022/08/25 00:35:18;;;;;;;4.93;3.50;;;;;;;;;;341465;29;911;-82
2022/08/25 00:35:28;;;;;;;5.23;3.70;;;;;;;;;;338436;29;838;-87
2022/08/25 00:35:40;;;;;;;6.97;4.13;;;;;;;;;;341292;29;1392;-82
2022/08/25 00:35:51;;;;;;;6.40;4.00;;;;;;;;;;338864;29;987;-82
2022/08/25 00:36:02;;;;;;;6.95;3.75;;;;;;;;;;341431;29;837;-82
2022/08/25 00:36:14;;;;;;;6.10;3.40;;;;;;;;;;339890;29;1501;-82
2022/08/25 00:36:25;;;;;;;5.22;3.13;;;;;;;;;;341469;29;891;-81
2022/08/25 00:36:36;;;;;;;4.85;3.10;;;;;;;;;;339815;29;895;-81
2022/08/25 00:36:46;;;;;;;4.97;3.17;;;;;;;;;;337517;29;837;-82
2022/08/25 00:36:57;;;;;;;5.53;3.47;;;;;;;;;;336275;29;849;-82
2022/08/25 00:37:10;;;;;;;5.90;3.70;;;;;;;;;;338656;29;1450;-82
2022/08/25 00:37:21;;;;;;;5.22;3.72;;;;;;;;;;338831;29;904;-82
2022/08/25 00:37:31;;;;;;;5.30;3.65;;;;;;;;;;338216;29;1178;-81
2022/08/25 00:37:42;;;;;;;4.97;3.63;;;;;;;;;;341082;29;1162;-87
2022/08/25 00:37:52;;;;;;;5.33;3.73;;;;;;;;;;341509;29;793;-91
2022/08/25 00:38:03;;;;;;;5.00;3.77;;;;;;;;;;339990;29;1221;-91
2022/08/25 00:38:15;;;;;;;5.55;3.75;;;;;;;;;;339422;29;1127;-81
2022/08/25 00:38:25;;;;;;;5.28;3.53;;;;;;;;;;338813;29;766;-81
2022/08/25 00:38:36;;;;;;;5.32;3.55;;;;;;;;;;341149;29;841;-82
2022/08/25 00:38:48;;;;;;;6.82;3.90;;;;;;;;;;342626;28;1516;-81
2022/08/25 00:38:58;;;;;;;7.78;4.15;;;;;;;;;;338693;29;1309;-82
2022/08/25 00:39:10;;;;;;;7.95;4.10;;;;;;;;;;340140;29;900;-81
2022/08/25 00:39:21;;;;;;;6.85;3.80;;;;;;;;;;338673;29;1324;-82
2022/08/25 00:39:31;;;;;;;5.88;3.50;;;;;;;;;;338451;29;932;-89
2022/08/25 00:39:42;;;;;;;4.75;3.28;;;;;;;;;;339938;29;1250;-84
2022/08/25 00:39:55;;;;;;;5.33;3.53;;;;;;;;;;337498;29;1396;-82
2022/08/25 00:40:07;;;;;;;5.60;3.50;;;;;;;;;;340024;29;923;-82
2022/08/25 00:40:17;;;;;;;4.93;3.33;;;;;;;;;;341250;29;825;-82
2022/08/25 00:40:28;;;;;;;5.20;3.20;;;;;;;;;;339943;29;1313;-82
2022/08/25 00:40:39;;;;;;;4.77;3.23;;;;;;;;;;339763;29;892;-82
2022/08/25 00:41:04;;;;;;;4.72;3.33;;;;;;;;;;340189;29;777;-82
2022/08/25 00:41:18;;;;;;;4.70;3.42;;;;;;;;;;337404;29;1161;-82
2022/08/25 00:41:29;;;;;;;5.30;3.70;;;;;;;;;;338758;29;916;-92
2022/08/25 00:41:41;;;;;;;5.30;3.33;;;;;;;;;;342289;28;1365;-89
2022/08/25 00:41:52;;;;;;;4.93;3.50;;;;;;;;;;341490;29;1517;-81
2022/08/25 00:42:03;;;;;;;5.80;3.40;;;;;;;;;;340109;29;880;-81
2022/08/25 00:42:14;;;;;;;5.60;3.85;;;;;;;;;;338614;29;1497;-82
2022/08/25 00:42:25;;;;;;;5.53;3.70;;;;;;;;;;335943;29;1010;-82
2022/08/25 00:42:37;;;;;;;4.95;3.63;;;;;;;;;;338492;29;921;-82
2022/08/25 00:42:47;;;;;;;4.68;3.20;;;;;;;;;;340024;29;1369;-82
2022/08/25 00:42:58;;;;;;;7.38;3.53;;;;;;;;;;341409;29;880;-82
2022/08/25 00:43:09;;;;;;;8.33;3.63;;;;;;;;;;342799;28;883;-81
2022/08/25 00:43:19;;;;;;;8.32;3.58;;;;;;;;;;340572;29;1453;-82
2022/08/25 00:43:50;;;;;;;4.82;3.30;;;;;;;;;;338669;29;1475;-82
2022/08/25 00:44:03;;;;;;;6.75;3.30;;;;;;;;;;338730;29;955;-81
2022/08/25 00:44:16;;;;;;;5.45;3.30;;;;;;;;;;338760;29;932;-82
2022/08/25 00:44:28;;;;;;;7.95;3.50;;;;;;;;;;337503;29;857;-82
2022/08/25 00:44:38;;;;;;;8.82;3.60;;;;;;;;;;338331;29;1422;-82
2022/08/25 00:44:49;;;;;;;6.68;3.38;;;;;;;;;;338854;29;932;-81
2022/08/25 00:44:59;;;;;;;5.87;3.40;;;;;;;;;;340947;29;872;-81
2022/08/25 00:45:10;;;;;;;5.07;3.38;;;;;;;;;;341312;29;1202;-89
2022/08/25 00:45:21;;;;;;;4.83;3.30;;;;;;;;;;341279;29;1910;-81
2022/08/25 00:45:32;;;;;;;4.35;3.28;;;;;;;;;;338708;29;884;-82
2022/08/25 00:45:43;;;;;;;4.75;3.03;;;;;;;;;;338480;29;860;-82
2022/08/25 00:45:54;;;;;;;5.20;3.00;;;;;;;;;;338779;29;1276;-82
2022/08/25 00:46:04;;;;;;;5.63;3.17;;;;;;;;;;338811;29;900;-81
2022/08/25 00:46:20;;;;;;;4.78;3.33;;;;;;;;;;339837;29;1465;-81
2022/08/25 00:46:37;;;;;;;4.50;3.40;;;;;;;;;;339921;29;900;-82
2022/08/25 00:46:49;;;;;;;4.75;3.72;;;;;;;;;;340551;29;861;-81
2022/08/25 00:47:00;;;;;;;4.90;3.80;;;;;;;;;;339119;29;1572;-81
2022/08/25 00:47:11;;;;;;;4.85;3.55;;;;;;;;;;341928;29;868;-87
2022/08/25 00:47:21;;;;;;;5.22;3.55;;;;;;;;;;339113;29;1296;-81
2022/08/25 00:47:32;;;;;;;5.50;3.53;;;;;;;;;;337742;29;1168;-82
2022/08/25 00:47:43;;;;;;;6.32;3.40;;;;;;;;;;340339;29;1294;-81
2022/08/25 00:47:53;;;;;;;5.90;3.20;;;;;;;;;;340183;29;1217;-90
2022/08/25 00:48:04;;;;;;;5.45;3.20;;;;;;;;;;337849;29;1191;-81
2022/08/25 00:48:14;;;;;;;4.95;3.35;;;;;;;;;;337793;29;1289;-82
2022/08/25 00:48:25;;;;;;;4.80;3.60;;;;;;;;;;337874;29;1536;-82
2022/08/25 00:48:35;;;;;;;4.87;3.87;;;;;;;;;;341395;29;1270;-81
2022/08/25 00:48:49;;;;;;;4.43;3.72;;;;;;;;;;339267;29;833;-81
2022/08/25 00:49:02;;;;;;;5.93;3.58;;;;;;;;;;340512;29;915;-91
2022/08/25 00:49:32;;;;;;;6.82;3.90;;;;;;;;;;339224;29;1493;-91
2022/08/25 00:49:48;;;;;;;4.22;3.00;;;;;;;;;;339752;29;1713;-81
2022/08/25 00:50:00;;;;;;;5.25;3.25;;;;;;;;;;341767;29;962;-81
2022/08/25 00:50:11;;;;;;;6.13;3.45;;;;;;;;;;340474;29;1225;-83
2022/08/25 00:50:21;;;;;;;5.53;3.35;;;;;;;;;;340467;29;821;-81
2022/08/25 00:50:33;;;;;;;5.10;3.23;;;;;;;;;;342868;28;938;-83
2022/08/25 00:50:44;;;;;;;5.32;3.38;;;;;;;;;;340568;29;889;-81
2022/08/25 00:50:54;;;;;;;6.33;3.43;;;;;;;;;;340579;29;817;-81
2022/08/25 00:51:05;;;;;;;6.50;3.33;;;;;;;;;;339243;29;785;-81
2022/08/25 00:51:18;;;;;;;5.95;3.10;;;;;;;;;;340598;29;994;-92
2022/08/25 00:51:38;;;;;;;5.72;3.20;;;;;;;;;;341762;29;927;-81
2022/08/25 00:52:12;;;;;;;5.00;2.90;;;;;;;;;;340539;29;919;-91
2022/08/25 00:52:45;;;;;;;6.15;3.13;;;;;;;;;;340434;29;897;-81
2022/08/25 00:52:57;;;;;;;5.03;2.92;;;;;;;;;;340450;29;956;-81
2022/08/25 00:53:07;;;;;;;6.45;3.13;;;;;;;;;;340316;29;844;-82
2022/08/25 00:53:18;;;;;;;6.17;3.30;;;;;;;;;;340494;29;1370;-90
2022/08/25 00:53:29;;;;;;;6.32;3.20;;;;;;;;;;340215;29;1403;-82
2022/08/25 00:53:40;;;;;;;6.15;3.50;;;;;;;;;;340348;29;884;-82
2022/08/25 00:53:50;;;;;;;6.75;3.60;;;;;;;;;;336679;29;865;-83
2022/08/25 00:54:01;;;;;;;6.27;3.57;;;;;;;;;;339200;29;900;-82
2022/08/25 00:54:19;;;;;;;6.22;3.47;;;;;;;;;;340346;29;1253;-92
2022/08/25 00:54:33;;;;;;;5.00;3.30;;;;;;;;;;338459;29;1104;-83
2022/08/25 00:55:00;;;;;;;4.63;3.07;;;;;;;;;;341206;28;983;-81
2022/08/25 00:55:13;;;;;;;3.80;2.95;;;;;;;;;;340445;29;852;-90
2022/08/25 00:55:29;;;;;;;4.38;3.25;;;;;;;;;;340495;29;1298;-86
2022/08/25 00:55:39;;;;;;;4.78;3.38;;;;;;;;;;339220;29;940;-81
2022/08/25 00:55:50;;;;;;;4.60;3.07;;;;;;;;;;340548;29;860;-81
2022/08/25 00:56:00;;;;;;;4.47;3.00;;;;;;;;;;339085;29;1230;-81
2022/08/25 00:56:11;;;;;;;4.10;2.90;;;;;;;;;;341834;29;1284;-91
2022/08/25 00:56:21;;;;;;;4.20;3.05;;;;;;;;;;339295;29;946;-81
2022/08/25 00:56:33;;;;;;;4.37;3.10;;;;;;;;;;339070;29;821;-82
2022/08/25 00:56:44;;;;;;;5.45;3.25;;;;;;;;;;338798;29;1268;-81
2022/08/25 00:56:55;;;;;;;5.25;3.00;;;;;;;;;;340506;29;1550;-81
2022/08/25 00:57:06;;;;;;;4.18;2.90;;;;;;;;;;340325;29;1219;-81
2022/08/25 00:57:20;;;;;;;4.30;2.95;;;;;;;;;;336683;29;893;-91
2022/08/25 00:57:42;;;;;;;4.40;2.92;;;;;;;;;;339115;29;825;-82
2022/08/25 00:58:06;;;;;;;4.10;2.83;;;;;;;;;;339255;29;927;-90
2022/08/25 00:58:24;;;;;;;4.00;2.95;;;;;;;;;;339308;29;939;-82
2022/08/25 00:58:34;;;;;;;4.05;2.90;;;;;;;;;;340016;29;1209;-81
2022/08/25 00:58:45;;;;;;;4.38;2.80;;;;;;;;;;340133;29;1301;-91
2022/08/25 00:58:56;;;;;;;4.70;3.00;;;;;;;;;;340632;29;884;-84
2022/08/25 00:59:07;;;;;;;4.78;3.10;;;;;;;;;;341752;29;1374;-82
2022/08/25 00:59:21;;;;;;;4.63;3.00;;;;;;;;;;343275;28;840;-92
2022/08/25 00:59:31;;;;;;;4.13;2.70;;;;;;;;;;338980;29;1420;-81
2022/08/25 00:59:43;;;;;;;3.73;2.70;;;;;;;;;;337595;29;1194;-88
2022/08/25 00:59:53;;;;;;;3.10;2.53;;;;;;;;;;341731;29;1271;-81
2022/08/25 01:00:08;;;;;;;3.40;2.50;;;;;;;;;;341862;29;793;-86
2022/08/25 01:00:30;;;;;;;5.75;2.53;;;;;;;;;;341927;29;939;-90
2022/08/25 01:00:43;;;;;;;5.20;2.67;;;;;;;;;;339902;29;1162;-82
2022/08/25 01:00:55;;;;;;;4.60;2.85;;;;;;;;;;339061;29;1508;-82
2022/08/25 01:01:06;;;;;;;3.72;2.85;;;;;;;;;;336612;29;923;-82
2022/08/25 01:01:16;;;;;;;3.53;2.75;;;;;;;;;;340470;29;1224;-82
2022/08/25 01:01:26;;;;;;;3.27;2.57;;;;;;;;;;340396;29;1285;-81
2022/08/25 01:01:37;;;;;;;4.00;2.40;;;;;;;;;;337868;29;1394;-81
2022/08/25 01:01:48;;;;;;;4.27;2.50;;;;;;;;;;337685;29;853;-81
2022/08/25 01:01:59;;;;;;;4.65;2.40;;;;;;;;;;338155;29;1523;-81
2022/08/25 01:02:10;;;;;;;4.20;2.50;;;;;;;;;;337942;29;833;-81
2022/08/25 01:02:22;;;;;;;4.97;2.85;;;;;;;;;;339226;29;837;-86
2022/08/25 01:02:32;;;;;;;4.68;2.90;;;;;;;;;;339054;29;1119;-85
2022/08/25 01:02:43;;;;;;;4.90;3.00;;;;;;;;;;336368;29;802;-82
2022/08/25 01:02:55;;;;;;;3.85;2.70;;;;;;;;;;339279;29;821;-90
2022/08/25 01:03:05;;;;;;;3.75;2.58;;;;;;;;;;340411;29;857;-83
2022/08/25 01:03:17;;;;;;;3.78;2.55;;;;;;;;;;341931;29;986;-92
2022/08/25 01:03:28;;;;;;;3.55;2.40;;;;;;;;;;338985;29;978;-87
2022/08/25 01:03:39;;;;;;;4.43;3.10;;;;;;;;;;339147;29;868;-82
2022/08/25 01:03:50;;;;;;;5.50;3.23;;;;;;;;;;340544;29;825;-81
2022/08/25 01:04:00;;;;;;;5.95;3.35;;;;;;;;;;340440;29;829;-82
2022/08/25 01:04:11;;;;;;;6.85;2.70;;;;;;;;;;341840;29;856;-91
2022/08/25 01:04:22;;;;;;;5.80;2.60;;;;;;;;;;340512;29;860;-86
2022/08/25 01:04:33;;;;;;;5.55;2.60;;;;;;;;;;339063;29;1468;-81
2022/08/25 01:04:44;;;;;;;3.78;2.45;;;;;;;;;;341615;29;927;-81
2022/08/25 01:04:55;;;;;;;3.65;2.38;;;;;;;;;;340543;29;1430;-82
2022/08/25 01:05:05;;;;;;;4.22;2.38;;;;;;;;;;341778;29;1205;-82
2022/08/25 01:05:18;;;;;;;4.05;2.40;;;;;;;;;;340471;29;1902;-91
2022/08/25 01:05:28;;;;;;;3.65;2.50;;;;;;;;;;340329;29;1567;-81
2022/08/25 01:05:39;;;;;;;3.63;2.53;;;;;;;;;;339298;29;853;-90
2022/08/25 01:05:50;;;;;;;3.75;2.40;;;;;;;;;;337799;29;920;-82
2022/08/25 01:06:01;;;;;;;3.60;2.50;;;;;;;;;;341745;29;1174;-82
2022/08/25 01:06:12;;;;;;;3.85;2.65;;;;;;;;;;341745;28;1390;-90
2022/08/25 01:06:23;;;;;;;3.80;2.70;;;;;;;;;;339159;29;1238;-82
2022/08/25 01:06:36;;;;;;;3.90;2.67;;;;;;;;;;338969;29;1312;-82
2022/08/25 01:06:47;;;;;;;4.70;2.60;;;;;;;;;;341370;29;852;-84
2022/08/25 01:06:57;;;;;;;4.75;2.55;;;;;;;;;;340459;29;801;-82
2022/08/25 01:07:08;;;;;;;4.57;2.70;;;;;;;;;;340607;29;872;-83
2022/08/25 01:07:18;;;;;;;5.28;2.90;;;;;;;;;;337821;29;1296;-82
2022/08/25 01:07:29;;;;;;;5.15;2.80;;;;;;;;;;341755;29;884;-81
2022/08/25 01:07:40;;;;;;;6.03;2.53;;;;;;;;;;341801;29;1129;-81
2022/08/25 01:07:53;;;;;;;4.93;2.55;;;;;;;;;;338487;29;1215;-86
2022/08/25 01:08:05;;;;;;;4.20;2.72;;;;;;;;;;340387;29;1455;-83
2022/08/25 01:08:19;;;;;;;5.47;2.70;;;;;;;;;;340413;29;1276;-82
2022/08/25 01:08:31;;;;;;;5.43;2.47;;;;;;;;;;336266;29;1311;-81
2022/08/25 01:08:41;;;;;;;5.00;2.45;;;;;;;;;;337791;29;932;-82
2022/08/25 01:08:53;;;;;;;4.03;2.57;;;;;;;;;;341864;29;1505;-82
2022/08/25 01:09:04;;;;;;;5.68;2.83;;;;;;;;;;341792;29;900;-81
2022/08/25 01:09:14;;;;;;;5.65;2.85;;;;;;;;;;340552;29;821;-81
2022/08/25 01:09:25;;;;;;;5.47;2.90;;;;;;;;;;339997;29;805;-82
2022/08/25 01:09:36;;;;;;;4.73;2.87;;;;;;;;;;340574;29;876;-82
2022/08/25 01:09:47;;;;;;;5.32;2.95;;;;;;;;;;340352;29;841;-81
2022/08/25 01:09:59;;;;;;;5.63;2.70;;;;;;;;;;339211;29;975;-90
2022/08/25 01:10:09;;;;;;;4.57;2.60;;;;;;;;;;341890;29;849;-82
2022/08/25 01:10:20;;;;;;;4.32;2.47;;;;;;;;;;341879;29;812;-81
2022/08/25 01:10:31;;;;;;;5.33;2.80;;;;;;;;;;341852;29;883;-91
2022/08/25 01:10:42;;;;;;;5.93;3.00;;;;;;;;;;340338;29;888;-81
2022/08/25 01:10:52;;;;;;;5.15;2.95;;;;;;;;;;337874;29;1003;-82
2022/08/25 01:11:05;;;;;;;4.82;2.85;;;;;;;;;;341666;29;1292;-82
2022/08/25 01:11:15;;;;;;;4.70;2.90;;;;;;;;;;341768;29;1392;-84
2022/08/25 01:11:26;;;;;;;3.72;2.92;;;;;;;;;;340575;29;880;-82
2022/08/25 01:11:37;;;;;;;3.80;3.00;;;;;;;;;;341748;29;936;-81
2022/08/25 01:11:48;;;;;;;4.00;3.10;;;;;;;;;;340335;29;924;-91
2022/08/25 01:11:59;;;;;;;4.70;3.00;;;;;;;;;;340278;29;1287;-89
2022/08/25 01:12:10;;;;;;;4.72;2.67;;;;;;;;;;339279;29;1081;-82
2022/08/25 01:12:20;;;;;;;4.60;2.50;;;;;;;;;;340415;29;985;-81
2022/08/25 01:12:31;;;;;;;4.25;2.70;;;;;;;;;;341608;28;1197;-82
2022/08/25 01:12:41;;;;;;;4.23;3.00;;;;;;;;;;341814;29;872;-82